Impacts TAF Board INFO
FOR SITUATIONAL AWARENESS. NOT TO BE USED FOR FLIGHT PLANNING PURPOSES.
IDs:

KSEA - Seattle-Tacoma Intl, WA, US

Issued at 0526 UTC 22 Jan 2018
Updated at 0829 UTC 22 Jan 2018
Potential Impact None Slight Moderate High
Time<<23/09Z 23/10Z 23/11Z 23/12Z 23/13Z 23/14Z 23/15Z 23/16Z 23/17Z 23/18Z 23/19Z 23/20Z 23/21Z
Type PRVL PRVL PRVL
VIS >6 >6 >6
CIG 70 70 70
Cover BKN BKN BKN
FltCat VFR VFR VFR
WX -- -- --
WDir 150 150 150
WSpd 6 6 6
WGst -- -- --

Raw TAF
KSEA 220526Z 2206/2312 17011KT P6SM SCT030 BKN070
  TEMPO 2206/2209 BKN030 BKN070
  FM220900 18010KT 6SM -SHRA BR SCT018 BKN025 OVC040
  TEMPO 2212/2216 SCT012 BKN018 OVC025
  FM221600 20007KT P6SM VCSH SCT015 BKN025 OVC035
  FM222100 19006KT P6SM VCSH SCT025 BKN035 OVC070
  FM230300 15006KT P6SM SCT035 BKN070


METAR Board
Radar Display
Forecast Discussion

FOR SITUATIONAL AWARENESS. NOT TO BE USED FOR FLIGHT PLANNING PURPOSES.